createdAt,value
2023-04-01T00:01:20.829Z,97123.41
2023-04-01T00:06:23.680Z,97121.43
2023-04-01T00:11:26.131Z,97115.38
2023-04-01T00:16:28.029Z,97111.04
2023-04-01T00:21:30.102Z,97107.52
2023-04-01T00:26:31.794Z,97101.73
2023-04-01T00:31:33.654Z,97097.10
2023-04-01T00:36:35.517Z,97096.92
2023-04-01T00:41:37.288Z,97103.77
2023-04-01T00:46:39.010Z,97104.79
2023-04-01T00:51:42.875Z,97109.24
2023-04-01T00:57:08.399Z,97112.11
2023-04-01T01:02:14.032Z,97103.94
2023-04-01T01:07:33.416Z,97105.72
2023-04-01T01:12:46.196Z,97099.63
2023-04-01T01:18:00.423Z,97093.05
2023-04-01T01:23:33.507Z,97090.33
2023-04-01T01:28:49.230Z,97093.81
2023-04-01T01:34:19.364Z,97092.95
2023-04-01T01:39:27.660Z,97088.20
2023-04-01T01:44:31.677Z,97093.48
2023-04-01T01:49:35.528Z,97095.58
2023-04-01T01:54:37.405Z,97093.41
2023-04-01T01:59:41.324Z,97089.41
2023-04-01T02:04:46.669Z,97092.48
2023-04-01T02:09:49.554Z,97100.42
2023-04-01T02:14:57.542Z,97104.45
2023-04-01T02:20:08.710Z,97110.83
2023-04-01T02:25:18.622Z,97104.88
2023-04-01T02:30:34.660Z,97111.48
2023-04-01T02:35:38.238Z,97107.85
2023-04-01T02:40:46.199Z,97103.16
2023-04-01T02:45:48.015Z,97103.71
2023-04-01T02:50:49.802Z,97106.17
2023-04-01T02:55:52.800Z,97109.73
2023-04-01T03:00:54.899Z,97117.10
2023-04-01T03:05:57.376Z,97116.33
2023-04-01T03:11:00.629Z,97118.31
2023-04-01T03:16:02.978Z,97121.14
2023-04-01T03:21:23.679Z,97125.04
2023-04-01T03:26:27.751Z,97123.20
2023-04-01T03:31:29.724Z,97120.85
2023-04-01T03:36:31.874Z,97123.05
2023-04-01T03:41:36.952Z,97122.99
2023-04-01T03:46:39.098Z,97127.77
2023-04-01T03:51:45.115Z,97130.23
2023-04-01T03:56:47.561Z,97131.90
2023-04-01T04:01:49.685Z,97128.80
2023-04-01T04:06:52.184Z,97133.40
2023-04-01T04:11:54.874Z,97130.19
2023-04-01T04:16:56.748Z,97128.84
2023-04-01T04:21:58.626Z,97120.86
2023-04-01T04:27:00.546Z,97119.66
2023-04-01T04:32:02.945Z,97118.05
2023-04-01T04:37:05.327Z,97115.25
2023-04-01T04:42:09.884Z,97098.91
2023-04-01T04:47:11.880Z,97115.55
2023-04-01T04:52:13.739Z,97120.23
2023-04-01T04:57:15.406Z,97124.63
2023-04-01T05:02:22.403Z,97123.45
2023-04-01T05:07:24.391Z,97123.89
2023-04-01T05:12:26.286Z,97124.04
2023-04-01T05:17:36.340Z,97128.98
2023-04-01T05:22:38.782Z,97132.55
2023-04-01T05:27:41.088Z,97137.36
2023-04-01T05:32:42.888Z,97135.02
2023-04-01T05:37:44.760Z,97132.65
2023-04-01T05:42:46.763Z,97137.52
2023-04-01T05:47:48.757Z,97134.35
2023-04-01T05:52:51.149Z,97133.67
2023-04-01T05:57:53.069Z,97134.26
2023-04-01T06:02:54.947Z,97138.52
2023-04-01T06:08:06.888Z,97141.00
2023-04-01T06:13:19.977Z,97144.94
2023-04-01T06:18:27.742Z,97152.30
2023-04-01T06:23:35.754Z,97152.63
2023-04-01T06:29:05.882Z,97149.75
2023-04-01T06:34:27.627Z,97150.67
2023-04-01T06:39:54.037Z,97161.43
2023-04-01T06:45:05.114Z,97163.91
2023-04-01T06:50:31.991Z,97167.55
2023-04-01T06:56:01.263Z,97166.08
2023-04-01T07:01:17.999Z,97166.20
2023-04-01T07:06:33.876Z,97172.75
2023-04-01T07:11:39.675Z,97179.30
2023-04-01T07:17:28.754Z,97186.11
2023-04-01T07:22:38.127Z,97188.71
2023-04-01T07:28:18.215Z,97193.55
2023-04-01T07:33:52.759Z,97193.21
2023-04-01T07:39:23.362Z,97195.61
2023-04-01T07:45:02.135Z,97200.39
2023-04-01T07:50:29.783Z,97202.71
2023-04-01T07:55:50.216Z,97201.56
2023-04-01T08:01:10.971Z,97203.14
2023-04-01T08:06:17.471Z,97199.21
2023-04-01T08:11:31.332Z,97205.01
2023-04-01T08:17:06.481Z,97211.49
2023-04-01T08:22:22.653Z,97213.48
2023-04-01T08:27:43.191Z,97216.54
2023-04-01T08:32:51.878Z,97213.96
2023-04-01T08:37:57.406Z,97214.84
2023-04-01T08:43:07.987Z,97215.61
2023-04-01T08:48:22.919Z,97215.69
2023-04-01T08:53:48.663Z,97215.34
2023-04-01T08:59:16.039Z,97217.15
2023-04-01T09:04:50.685Z,97217.65
2023-04-01T09:09:58.549Z,97219.06
2023-04-01T09:15:32.058Z,97220.20
2023-04-01T09:20:47.099Z,97223.16
2023-04-01T09:26:20.447Z,97222.30
2023-04-01T09:31:41.426Z,97222.63
2023-04-01T09:37:33.995Z,97226.39
2023-04-01T09:42:52.198Z,97225.99
2023-04-01T09:48:21.393Z,97225.51
2023-04-01T09:54:11.495Z,97218.23
2023-04-01T09:59:44.689Z,97224.83
2023-04-01T10:05:13.428Z,97234.23
2023-04-01T10:10:37.147Z,97232.94
2023-04-01T10:15:51.925Z,97229.50
2023-04-01T10:21:29.561Z,97228.20
2023-04-01T10:26:59.302Z,97222.75
2023-04-01T10:32:36.210Z,97222.42
2023-04-01T10:38:09.299Z,97223.22
2023-04-01T10:43:29.691Z,97231.20
2023-04-01T10:49:10.864Z,97225.56
2023-04-01T10:54:45.140Z,97227.70
2023-04-01T11:00:23.552Z,97225.30
2023-04-01T11:05:57.486Z,97225.08
2023-04-01T11:11:29.852Z,97221.02
2023-04-01T11:16:56.787Z,97222.75
2023-04-01T11:22:10.535Z,97230.55
2023-04-01T11:27:39.620Z,97231.81
2023-04-01T11:32:55.853Z,97230.89
2023-04-01T11:38:47.410Z,97207.81
2023-04-01T11:44:28.284Z,97228.37
2023-04-01T11:50:07.486Z,97228.48
2023-04-01T11:56:13.104Z,97234.64
2023-04-01T12:01:20.655Z,97230.46
2023-04-01T12:06:56.767Z,97231.64
2023-04-01T12:12:01.402Z,97235.05
2023-04-01T12:17:32.052Z,97235.46
2023-04-01T12:23:04.808Z,97239.44
2023-04-01T12:28:27.016Z,97245.40
2023-04-01T12:34:04.573Z,97247.55
2023-04-01T12:39:33.669Z,97246.21
2023-04-01T12:44:38.363Z,97242.93
2023-04-01T12:49:58.704Z,97244.37
2023-04-01T12:55:36.174Z,97241.81
2023-04-01T13:01:09.653Z,97249.11
2023-04-01T13:06:21.368Z,97247.23
2023-04-01T13:11:39.173Z,97252.67
2023-04-01T13:16:49.882Z,97258.10
2023-04-01T13:22:03.646Z,97249.88
2023-04-01T13:27:31.893Z,97248.17
2023-04-01T13:32:43.678Z,97244.41
2023-04-01T13:38:13.747Z,97242.52
2023-04-01T13:43:22.730Z,97257.05
2023-04-01T13:48:36.832Z,97266.67
2023-04-01T13:53:56.882Z,97274.71
2023-04-01T13:59:24.732Z,97274.70
2023-04-01T14:04:57.273Z,97284.83
2023-04-01T14:10:09.034Z,97293.42
2023-04-01T14:15:48.378Z,97305.59
2023-04-01T14:21:01.263Z,97311.07
2023-04-01T14:26:31.067Z,97314.35
2023-04-01T14:32:11.515Z,97300.66
2023-04-01T14:37:41.877Z,97300.39
2023-04-01T14:43:00.425Z,97307.67
2023-04-01T14:48:22.763Z,97311.43
2023-04-01T14:53:24.397Z,97309.56
2023-04-01T14:58:42.341Z,97321.42
2023-04-01T15:04:19.696Z,97322.33
2023-04-01T15:09:39.980Z,97323.43
2023-04-01T15:15:09.262Z,97323.25
2023-04-01T15:20:44.099Z,97332.31
2023-04-01T15:26:01.449Z,97335.42
2023-04-01T15:31:33.801Z,97349.41
2023-04-01T15:37:01.490Z,97360.52
2023-04-01T15:42:33.065Z,97360.79
2023-04-01T15:47:40.996Z,97364.88
2023-04-01T15:53:04.394Z,97369.98
2023-04-01T15:58:25.197Z,97374.38
2023-04-01T16:03:41.751Z,97381.67
2023-04-01T16:09:20.217Z,97378.48
2023-04-01T16:14:52.768Z,97373.78
2023-04-01T16:20:14.328Z,97369.32
2023-04-01T16:25:42.942Z,97380.84
2023-04-01T16:31:12.249Z,97381.99
2023-04-01T16:36:28.433Z,97390.29
2023-04-01T16:41:37.077Z,97400.12
2023-04-01T16:46:48.004Z,97409.67
2023-04-01T16:51:53.046Z,97419.71
2023-04-01T16:57:03.036Z,97426.16
2023-04-01T17:02:07.735Z,97442.30
2023-04-01T17:07:31.415Z,97450.25
2023-04-01T17:13:01.039Z,97456.09
2023-04-01T17:18:34.074Z,97458.34
2023-04-01T17:23:51.932Z,97478.13
2023-04-01T17:29:06.301Z,97494.77
2023-04-01T17:34:15.700Z,97504.48
2023-04-01T17:39:46.482Z,97503.65
2023-04-01T17:45:01.829Z,97514.94
2023-04-01T17:50:28.605Z,97517.79
2023-04-01T17:56:01.145Z,97520.57
2023-04-01T18:01:18.944Z,97525.73
2023-04-01T18:06:54.601Z,97522.52
2023-04-01T18:12:18.326Z,97530.36
2023-04-01T18:17:43.096Z,97529.69
2023-04-01T18:23:07.453Z,97531.59
2023-04-01T18:28:28.626Z,97534.35
2023-04-01T18:33:36.061Z,97538.79
2023-04-01T18:38:46.687Z,97552.89
2023-04-01T18:44:26.878Z,97555.92
2023-04-01T18:49:45.585Z,97557.26
2023-04-01T18:55:26.476Z,97564.91
2023-04-01T19:00:49.933Z,97566.51
2023-04-01T19:05:54.677Z,97571.31
2023-04-01T19:11:14.918Z,97574.04
2023-04-01T19:16:35.434Z,97577.55
2023-04-01T19:21:47.816Z,97578.62
2023-04-01T19:27:12.293Z,97581.94
2023-04-01T19:32:46.617Z,97587.06
2023-04-01T19:38:10.249Z,97600.35
2023-04-01T19:43:23.907Z,97599.94
2023-04-01T19:48:45.834Z,97611.80
2023-04-01T19:54:16.511Z,97615.06
2023-04-01T19:59:48.679Z,97618.95
2023-04-01T20:04:57.356Z,97628.10
2023-04-01T20:10:11.028Z,97637.77
2023-04-01T20:15:34.490Z,97635.73
2023-04-01T20:20:38.692Z,97636.46
2023-04-01T20:26:03.418Z,97636.36
2023-04-01T20:31:27.257Z,97638.98
2023-04-01T20:36:48.745Z,97644.33
2023-04-01T20:41:53.211Z,97651.86
2023-04-01T20:47:14.853Z,97651.72
2023-04-01T20:52:24.006Z,97661.59
2023-04-01T20:57:36.759Z,97662.04
2023-04-01T21:03:07.097Z,97667.77
2023-04-01T21:08:34.074Z,97669.83
2023-04-01T21:13:51.385Z,97673.27
2023-04-01T21:19:06.278Z,97680.75
2023-04-01T21:24:47.432Z,97685.86
2023-04-01T21:30:02.596Z,97690.58
2023-04-01T21:35:23.210Z,97691.56
2023-04-01T21:41:14.437Z,97694.80
2023-04-01T21:46:27.703Z,97700.27
2023-04-01T21:52:19.335Z,97694.96
2023-04-01T21:57:51.975Z,97699.18
2023-04-01T22:03:19.825Z,97699.73
2023-04-01T22:08:33.250Z,97699.40
2023-04-01T22:13:51.307Z,97709.11
2023-04-01T22:19:25.767Z,97709.05
2023-04-01T22:24:39.586Z,97714.90
2023-04-01T22:29:59.654Z,97716.39
2023-04-01T22:35:19.604Z,97716.62
2023-04-01T22:40:25.649Z,97721.27
2023-04-01T22:45:52.794Z,97721.27
2023-04-01T22:51:13.365Z,97727.21
2023-04-01T22:56:24.739Z,97735.06
2023-04-01T23:01:33.815Z,97737.16
2023-04-01T23:06:51.147Z,97741.64
2023-04-01T23:12:01.595Z,97739.58
2023-04-01T23:17:16.236Z,97741.81
2023-04-01T23:22:31.726Z,97748.98
2023-04-01T23:28:00.901Z,97742.71
2023-04-01T23:33:32.828Z,97744.08
2023-04-01T23:38:43.152Z,97751.98
2023-04-01T23:43:50.380Z,97756.86
2023-04-01T23:48:54.364Z,97759.89
2023-04-01T23:54:17.540Z,97763.95
2023-04-01T23:59:24.830Z,97770.58
